Aviation Digital Data Service (ADDS)

Output produced by TAFs form (2345 UTC 18 September 2014)
found at http://aviationweather.gov/adds/tafs/
 
KELP 182338Z 1900/1924 01010KT P6SM -SHRA VCTS FEW005 BKN060CB 
     FM190100 36010KT P6SM SHRA BKN030 OVC060 
     TEMPO 1901/1905 VRB20G35KT 3SM +TSRA BKN020CB 
     FM190500 VRB05KT P6SM VCSH SCT025 BKN060 OVC100 
     FM191000 25010KT P6SM SCT028 SCT060 BKN100 
     FM191900 17012G21KT P6SM SCT040 BKN120